Map

Track Data

SID SEASON NUMBER BASIN SUBBASIN NAME ISO_TIME NATURE LAT LON WMO_WIND WMO_PRES WMO_AGENCY TRACK_TYPE DIST2LAND LANDFALL IFLAG USA_AGENCY USA_ATCF_ID USA_LAT USA_LON USA_RECORD USA_STATUS USA_WIND USA_PRES USA_SSHS USA_R34_NE USA_R34_SE USA_R34_SW USA_R34_NW USA_R50_NE USA_R50_SE USA_R50_SW USA_R50_NW USA_R64_NE USA_R64_SE USA_R64_SW USA_R64_NW USA_POCI USA_ROCI USA_RMW USA_EYE TOKYO_LAT TOKYO_LON TOKYO_GRADE TOKYO_WIND TOKYO_PRES TOKYO_R50_DIR TOKYO_R50_LONG TOKYO_R50_SHORT TOKYO_R30_DIR TOKYO_R30_LONG TOKYO_R30_SHORT TOKYO_LAND CMA_LAT CMA_LON CMA_CAT CMA_WIND CMA_PRES HKO_LAT HKO_LON HKO_CAT HKO_WIND HKO_PRES NEWDELHI_LAT NEWDELHI_LON NEWDELHI_GRADE NEWDELHI_WIND NEWDELHI_PRES NEWDELHI_CI NEWDELHI_DP NEWDELHI_POCI REUNION_LAT REUNION_LON REUNION_TYPE REUNION_WIND REUNION_PRES REUNION_TNUM REUNION_CI REUNION_RMW REUNION_R34_NE REUNION_R34_SE REUNION_R34_SW REUNION_R34_NW REUNION_R50_NE REUNION_R50_SE REUNION_R50_SW REUNION_R50_NW REUNION_R64_NE REUNION_R64_SE REUNION_R64_SW REUNION_R64_NW BOM_LAT BOM_LON BOM_TYPE BOM_WIND BOM_PRES BOM_TNUM BOM_CI BOM_RMW BOM_R34_NE BOM_R34_SE BOM_R34_SW BOM_R34_NW BOM_R50_NE BOM_R50_SE BOM_R50_SW BOM_R50_NW BOM_R64_NE BOM_R64_SE BOM_R64_SW BOM_R64_NW BOM_ROCI BOM_POCI BOM_EYE BOM_POS_METHOD BOM_PRES_METHOD NADI_LAT NADI_LON NADI_CAT NADI_WIND NADI_PRES WELLINGTON_LAT WELLINGTON_LON WELLINGTON_WIND WELLINGTON_PRES DS824_LAT DS824_LON DS824_STAGE DS824_WIND DS824_PRES TD9636_LAT TD9636_LON TD9636_STAGE TD9636_WIND TD9636_PRES TD9635_LAT TD9635_LON TD9635_WIND TD9635_PRES TD9635_ROCI NEUMANN_LAT NEUMANN_LON NEUMANN_CLASS NEUMANN_WIND NEUMANN_PRES MLC_LAT MLC_LON MLC_CLASS MLC_WIND MLC_PRES USA_GUST BOM_GUST BOM_GUST_PER REUNION_GUST REUNION_GUST_PER USA_SEAHGT USA_SEARAD_NE USA_SEARAD_SE USA_SEARAD_SW USA_SEARAD_NW STORM_SPEED STORM_DIR
1961196N14262 1961 60 EP MM LIZA 1961-07-15 00:00:00 TS 14.3000 -98.0000 45 hurdat_epa main 191 186 O________OO___ hurdat_epa EP041961 14.3000 -98.0000 TS 45 0 14.3000 -98.0000 TC 45 14.3000 -98.0000 2 18 283
1961196N14262 1961 60 EP MM LIZA 1961-07-15 03:00:00 TS 14.5006 -98.9030 main 204 200 P________PP___ EP041961 14.5032 -98.9072 TS 45 0 14.5032 -98.9072 TC 45 14.4902 -98.8866 2 18 283
1961196N14262 1961 60 EP MM LIZA 1961-07-15 06:00:00 TS 14.6966 -99.7938 45 hurdat_epa main 220 216 O________OP___ hurdat_epa EP041961 14.7000 -99.8000 TS 45 0 14.7000 -99.8000 TC 45 14.6829 -99.7692 2 17 283
1961196N14262 1961 60 EP MM LIZA 1961-07-15 09:00:00 TS 14.8906 -100.661 main 228 228 P________PP___ EP041961 14.8922 -100.665 TS 45 0 14.8922 -100.665 TC 45 14.8842 -100.642 2 17 284
1961196N14262 1961 60 EP MM LIZA 1961-07-15 12:00:00 TS 15.1000 -101.500 45 hurdat_epa main 246 243 O________OO___ hurdat_epa EP041961 15.1000 -101.500 TS 45 0 15.1000 -101.500 TC 45 15.1000 -101.500 2 17 286
1961196N14262 1961 60 EP MM LIZA 1961-07-15 15:00:00 TS 15.3405 -102.308 main 257 253 P________PP___ EP041961 15.3421 -102.300 TS 45 0 15.3421 -102.300 TC 45 15.3345 -102.340 2 16 288
1961196N14262 1961 60 EP MM LIZA 1961-07-15 18:00:00 TS 15.5967 -103.113 45 hurdat_epa main 271 267 O________OP___ hurdat_epa EP041961 15.6000 -103.100 TS 45 0 15.6000 -103.100 TC 45 15.5834 -103.166 2 17 288
1961196N14262 1961 60 EP MM LIZA 1961-07-15 21:00:00 TS 15.8480 -103.957 main 281 271 P________PP___ EP041961 15.8498 -103.950 TS 45 0 15.8498 -103.950 TC 45 15.8407 -103.984 2 17 287
1961196N14262 1961 60 EP MM LIZA 1961-07-16 00:00:00 TS 16.1000 -104.800 45 hurdat_epa main 282 282 O________OO___ hurdat_epa EP041961 16.1000 -104.800 TS 45 0 16.1000 -104.800 TC 45 16.1000 -104.800 2 17 287
1961196N14262 1961 60 EP MM LIZA 1961-07-16 03:00:00 TS 16.3454 -105.606 main 315 315 P________PP___ EP041961 16.3495 -105.600 TS 45 0 16.3495 -105.600 TC 45 16.3289 -105.630 2 16 288
1961196N14262 1961 60 EP MM LIZA 1961-07-16 06:00:00 TS 16.5923 -106.412 45 hurdat_epa main 336 336 O________OP___ hurdat_epa EP041961 16.6000 -106.400 TS 45 0 16.6000 -106.400 TC 45 16.5614 -106.459 2 17 287
1961196N14262 1961 60 EP MM LIZA 1961-07-16 09:00:00 TS 16.8245 -107.257 main 376 376 P________PP___ EP041961 16.8273 -107.250 TS 45 0 16.8273 -107.250 TC 45 16.8132 -107.284 2 17 287
1961196N14262 1961 60 EP MM LIZA 1961-07-16 12:00:00 TS 17.1000 -108.100 45 hurdat_epa main 414 414 O________OO___ hurdat_epa EP041961 17.1000 -108.100 TS 45 0 17.1000 -108.100 TC 45 17.1000 -108.100 2 17 293
1961196N14262 1961 60 EP MM LIZA 1961-07-16 15:00:00 TS 17.4836 -108.916 main 452 452 P________PP___ EP041961 17.4846 -108.908 TS 45 0 17.4846 -108.908 TC 45 17.4797 -108.950 2 17 297
1961196N14262 1961 60 EP MM LIZA 1961-07-16 18:00:00 TS 17.8976 -109.718 45 hurdat_epa main 500 500 O________OP___ hurdat_epa EP041961 17.9000 -109.700 TS 45 0 17.9000 -109.700 TC 45 17.8878 -109.787 2 18 297
1961196N14262 1961 60 EP MM LIZA 1961-07-16 21:00:00 TS 18.2855 -110.552 main 518 496 P________PP___ EP041961 18.2876 -110.545 TS 45 0 18.2876 -110.545 TC 45 18.2768 -110.581 2 17 295
1961196N14262 1961 60 EP MM LIZA 1961-07-17 00:00:00 TS 18.6000 -111.300 45 hurdat_epa main 499 491 O________OO___ hurdat_epa EP041961 18.6000 -111.300 TS 45 0 18.6000 -111.300 TC 45 18.6000 -111.300 2 13 292
1961196N14262 1961 60 EP MM LIZA 1961-07-17 03:00:00 TS 18.7900 -111.845 main 495 495 P________PP___ EP041961 18.7869 -111.838 TS 45 0 18.7869 -111.838 TC 45 18.8025 -111.873 2 10 288
1961196N14262 1961 60 EP MM LIZA 1961-07-17 06:00:00 TS 18.9073 -112.315 45 hurdat_epa main 507 507 O________OP___ hurdat_epa EP041961 18.9000 -112.300 TS 45 0 18.9000 -112.300 TC 45 18.9366 -112.375 2 10 284
1961196N14262 1961 60 EP MM LIZA 1961-07-17 09:00:00 TS 19.0172 -112.823 main 524 524 P________PP___ EP041961 19.0146 -112.813 TS 45 0 19.0146 -112.813 TC 45 19.0276 -112.864 2 10 281
1961196N14262 1961 60 EP MM LIZA 1961-07-17 12:00:00 TS 19.1000 -113.400 45 hurdat_epa main 552 552 O________OO___ hurdat_epa EP041961 19.1000 -113.400 TS 45 0 19.1000 -113.400 TC 45 19.1000 -113.400 2 12 276
1961196N14262 1961 60 EP MM LIZA 1961-07-17 15:00:00 TS 19.1550 -114.128 main 593 593 P________PP___ EP041961 19.1501 -114.128 TS 45 0 19.1501 -114.128 TC 45 19.1747 -114.129 2 14 274
1961196N14262 1961 60 EP MM LIZA 1961-07-17 18:00:00 TS 19.2075 -114.901 45 hurdat_epa main 655 655 O________OP___ hurdat_epa EP041961 19.2000 -114.900 TS 45 0 19.2000 -114.900 TC 45 19.2373 -114.903 2 15 275
1961196N14262 1961 60 EP MM LIZA 1961-07-17 21:00:00 TS 19.2893 -115.658 main 706 706 P________PP___ EP041961 19.2851 -115.660 TS 45 0 19.2851 -115.660 TC 45 19.3060 -115.651 2 13 278
1961196N14262 1961 60 EP MM LIZA 1961-07-18 00:00:00 TS 19.4000 -116.300 45 hurdat_epa main 733 733 O________OO___ hurdat_epa EP041961 19.4000 -116.300 TS 45 0 19.4000 -116.300 TC 45 19.4000 -116.300 2 10 284
1961196N14262 1961 60 EP MM LIZA 1961-07-18 03:00:00 TS 19.5275 -116.710 main 749 747 P________PP___ EP041961 19.5345 -116.703 TS 45 0 19.5345 -116.703 TC 45 19.4996 -116.739 2 7 293
1961196N14262 1961 60 EP MM LIZA 1961-07-18 06:00:00 TS 19.6870 -117.015 45 hurdat_epa main 752 752 O________OP___ hurdat_epa EP041961 19.7000 -117.000 TS 45 0 19.7000 -117.000 TC 45 19.6350 -117.077 2 7 299
1961196N14262 1961 60 EP MM LIZA 1961-07-18 09:00:00 TS 19.8554 -117.338 main 757 757 P________PP___ EP041961 19.8623 -117.328 TS 45 0 19.8623 -117.328 TC 45 19.8280 -117.377 2 8 303
1961196N14262 1961 60 EP MM LIZA 1961-07-18 12:00:00 TS 20.1000 -117.700 45 hurdat_epa main 771 771 O________OO___ hurdat_epa EP041961 20.1000 -117.700 TS 45 0 20.1000 -117.700 TC 45 20.1000 -117.700 2 10 307
1961196N14262 1961 60 EP MM LIZA 1961-07-18 15:00:00 TS 20.4535 -118.182 main 780 780 P________PP___ EP041961 20.4551 -118.185 TS 45 0 20.4551 -118.185 TC 45 20.4472 -118.171 2 12 310
1961196N14262 1961 60 EP MM LIZA 1961-07-18 18:00:00 TS 20.8947 -118.694 45 hurdat_epa main 795 795 O________OP___ hurdat_epa EP041961 20.9000 -118.700 TS 45 0 20.9000 -118.700 TC 45 20.8735 -118.671 2 13 315
1961196N14262 1961 60 EP MM LIZA 1961-07-18 21:00:00 TS 21.3745 -119.170 main 809 791 P________PP___ EP041961 21.3774 -119.173 TS 45 0 21.3774 -119.173 TC 45 21.3629 -119.161 2 13 320
1961196N14262 1961 60 EP MM LIZA 1961-07-19 00:00:00 TS 21.9000 -119.600 45 hurdat_epa main 791 770 O________OO___ hurdat_epa EP041961 21.9000 -119.600 TS 45 0 21.9000 -119.600 TC 45 21.9000 -119.600 2 13 325
1961196N14262 1961 60 EP MM LIZA 1961-07-19 03:00:00 TS 22.4361 -119.981 main 776 747 P________PP___ EP041961 22.4274 -119.988 TS 45 0 22.4274 -119.988 TC 45 22.4710 -119.956 2 13 330
1961196N14262 1961 60 EP MM LIZA 1961-07-19 06:00:00 TS 23.0134 -120.288 45 hurdat_epa main 747 716 O________OP___ hurdat_epa EP041961 23.0000 -120.300 TS 45 0 23.0000 -120.300 TC 45 23.0668 -120.242 2 13 338
1961196N14262 1961 60 EP MM LIZA 1961-07-19 09:00:00 TS 23.6419 -120.516 main 716 684 P________PP___ EP041961 23.6325 -120.525 TS 45 0 23.6325 -120.525 TC 45 23.6793 -120.482 2 13 344
1961196N14262 1961 60 EP MM LIZA 1961-07-19 12:00:00 TS 24.3000 -120.700 45 hurdat_epa main 684 O________OO___ hurdat_epa EP041961 24.3000 -120.700 TS 45 0 24.3000 -120.700 TC 45 24.3000 -120.700 2 14 346

About IBTrACS Database

This database is a web-friendly format of International Best Track Archive for Climate Stewardship (IBTrACS), a global best track data archive curated by NOAA dating back to 1842.

Updated: 2021-10-21